createdAt,value
2022-09-14T00:00:14.517Z,6.70
2022-09-14T00:04:42.879Z,6.70
2022-09-14T00:08:53.430Z,6.70
2022-09-14T00:13:01.423Z,6.20
2022-09-14T00:17:09.257Z,6.60
2022-09-14T00:21:19.456Z,6.50
2022-09-14T00:25:27.923Z,6.30
2022-09-14T00:29:36.020Z,6.50
2022-09-14T00:33:44.243Z,6.00
2022-09-14T00:37:53.317Z,6.20
2022-09-14T00:42:00.872Z,5.30
2022-09-14T00:46:09.008Z,5.80
2022-09-14T00:50:17.808Z,6.00
2022-09-14T00:54:25.650Z,6.00
2022-09-14T00:58:33.132Z,6.00
2022-09-14T01:02:41.263Z,6.20
2022-09-14T01:06:54.025Z,5.80
2022-09-14T01:11:24.923Z,5.30
2022-09-14T01:15:38.393Z,5.60
2022-09-14T01:20:15.436Z,5.80
2022-09-14T01:24:27.421Z,5.80
2022-09-14T01:28:39.085Z,5.70
2022-09-14T01:32:50.773Z,5.70
2022-09-14T01:37:01.245Z,5.50
2022-09-14T01:41:11.169Z,5.70
2022-09-14T01:45:21.151Z,5.60
2022-09-14T01:49:33.248Z,5.40
2022-09-14T01:53:43.869Z,5.30
2022-09-14T01:57:53.562Z,5.30
2022-09-14T02:02:05.680Z,5.70
2022-09-14T02:06:16.684Z,4.70
2022-09-14T02:10:26.523Z,5.10
2022-09-14T02:14:36.043Z,5.00
2022-09-14T02:18:47.200Z,5.20
2022-09-14T02:22:56.087Z,5.80
2022-09-14T02:27:04.949Z,6.10
2022-09-14T02:31:18.287Z,6.00
2022-09-14T02:35:32.182Z,6.00
2022-09-14T02:39:46.841Z,6.00
2022-09-14T02:44:06.279Z,6.30
2022-09-14T02:48:18.208Z,6.40
2022-09-14T02:52:33.051Z,7.30
2022-09-14T02:56:40.958Z,7.10
2022-09-14T03:00:50.222Z,7.40
2022-09-14T03:04:58.533Z,6.60
2022-09-14T03:09:06.796Z,7.10
2022-09-14T03:13:14.251Z,7.30
2022-09-14T03:17:21.684Z,6.90
2022-09-14T03:21:29.163Z,6.90
2022-09-14T03:25:39.931Z,6.90
2022-09-14T03:29:47.506Z,6.60
2022-09-14T03:33:57.925Z,6.60
2022-09-14T03:38:05.917Z,6.40
2022-09-14T03:42:15.935Z,6.70
2022-09-14T03:46:25.212Z,7.10
2022-09-14T03:50:32.855Z,6.30
2022-09-14T03:54:40.342Z,6.90
2022-09-14T03:58:49.333Z,6.80
2022-09-14T04:02:58.302Z,6.60
2022-09-14T04:07:05.863Z,6.60
2022-09-14T04:11:15.183Z,6.50
2022-09-14T04:15:23.215Z,5.90
2022-09-14T04:19:31.294Z,5.90
2022-09-14T04:23:56.942Z,6.10
2022-09-14T04:28:20.226Z,6.10
2022-09-14T04:32:34.032Z,6.00
2022-09-14T04:36:45.216Z,6.60
2022-09-14T04:40:55.458Z,6.50
2022-09-14T04:45:21.359Z,6.30
2022-09-14T04:49:36.119Z,6.10
2022-09-14T04:53:51.284Z,5.90
2022-09-14T04:58:01.738Z,6.50
2022-09-14T05:02:12.854Z,6.80
2022-09-14T05:06:26.776Z,6.50
2022-09-14T05:10:36.319Z,5.80
2022-09-14T05:14:58.290Z,6.00
2022-09-14T05:19:12.324Z,6.30
2022-09-14T05:23:22.198Z,7.60
2022-09-14T05:27:34.126Z,7.10
2022-09-14T05:31:49.394Z,6.80
2022-09-14T05:36:06.539Z,6.30
2022-09-14T05:40:18.497Z,6.50
2022-09-14T05:44:33.950Z,6.60
2022-09-14T05:48:45.448Z,6.30
2022-09-14T05:52:58.550Z,6.50
2022-09-14T05:57:09.752Z,6.70
2022-09-14T06:01:27.585Z,6.40
2022-09-14T06:05:47.557Z,6.50
2022-09-14T06:10:06.151Z,6.80
2022-09-14T06:14:20.047Z,6.30
2022-09-14T06:18:27.587Z,7.10
2022-09-14T06:22:42.957Z,6.80
2022-09-14T06:26:59.205Z,7.00
2022-09-14T06:31:10.197Z,6.60
2022-09-14T06:35:25.624Z,6.40
2022-09-14T06:39:35.658Z,6.90
2022-09-14T06:43:46.932Z,6.70
2022-09-14T06:48:03.794Z,6.50
2022-09-14T06:52:15.345Z,6.90
2022-09-14T06:56:32.439Z,6.70
2022-09-14T07:00:43.264Z,6.50
2022-09-14T07:04:54.581Z,6.50
2022-09-14T07:09:05.207Z,6.80
2022-09-14T07:13:21.035Z,7.00
2022-09-14T07:17:28.378Z,7.10
2022-09-14T07:21:45.376Z,7.30
2022-09-14T07:26:02.941Z,7.20
2022-09-14T07:30:15.182Z,7.60
2022-09-14T07:34:25.274Z,7.20
2022-09-14T07:38:51.200Z,7.70
2022-09-14T07:43:04.292Z,8.00
2022-09-14T07:47:13.163Z,7.50
2022-09-14T07:51:20.582Z,7.40
2022-09-14T07:55:27.978Z,7.30
2022-09-14T07:59:42.484Z,7.10
2022-09-14T08:03:52.726Z,6.70
2022-09-14T08:08:07.736Z,6.90
2022-09-14T08:12:26.404Z,6.90
2022-09-14T08:16:38.904Z,7.30
2022-09-14T08:20:55.617Z,6.80
2022-09-14T08:25:03.944Z,6.40
2022-09-14T08:29:20.175Z,6.50
2022-09-14T08:33:30.351Z,7.30
2022-09-14T08:37:43.422Z,6.90
2022-09-14T08:41:55.760Z,6.50
2022-09-14T08:46:14.027Z,6.10
2022-09-14T08:50:27.544Z,6.70
2022-09-14T08:54:37.684Z,6.40
2022-09-14T08:58:57.234Z,6.50
2022-09-14T09:04:02.058Z,6.30
2022-09-14T09:08:19.152Z,6.50
2022-09-14T09:12:41.464Z,7.00
2022-09-14T09:16:56.982Z,6.60
2022-09-14T09:21:08.644Z,6.10
2022-09-14T09:25:25.285Z,6.20
2022-09-14T09:29:42.717Z,6.30
2022-09-14T09:33:53.253Z,6.60
2022-09-14T09:38:06.441Z,5.70
2022-09-14T09:42:23.949Z,5.60
2022-09-14T09:46:33.811Z,6.20
2022-09-14T09:50:50.351Z,6.80
2022-09-14T09:54:59.518Z,7.00
2022-09-14T09:59:30.957Z,7.00
2022-09-14T10:04:05.513Z,6.20
2022-09-14T10:08:20.506Z,6.20
2022-09-14T10:12:38.789Z,5.90
2022-09-14T10:16:49.936Z,6.70
2022-09-14T10:21:12.161Z,6.70
2022-09-14T10:25:31.883Z,6.50
2022-09-14T10:29:47.408Z,6.90
2022-09-14T10:33:57.670Z,6.30
2022-09-14T10:38:18.167Z,6.00
2022-09-14T10:42:40.991Z,6.10
2022-09-14T10:46:54.083Z,6.10
2022-09-14T10:51:10.382Z,6.50
2022-09-14T10:55:40.255Z,6.60
2022-09-14T10:59:55.703Z,5.90
2022-09-14T11:04:31.602Z,5.50
2022-09-14T11:08:49.257Z,6.90
2022-09-14T11:13:18.796Z,6.10
2022-09-14T11:17:53.051Z,6.50
2022-09-14T11:22:05.302Z,6.20
2022-09-14T11:26:23.969Z,5.60
2022-09-14T11:30:41.055Z,5.80
2022-09-14T11:34:56.234Z,5.30
2022-09-14T11:39:08.375Z,5.50
2022-09-14T11:43:17.443Z,6.10
2022-09-14T11:47:29.851Z,6.60
2022-09-14T11:51:41.034Z,6.70
2022-09-14T11:55:52.541Z,6.20
2022-09-14T12:00:01.543Z,6.20
2022-09-14T12:04:17.381Z,6.30
2022-09-14T12:08:48.807Z,7.00
2022-09-14T12:13:19.015Z,6.80
2022-09-14T12:17:41.375Z,7.10
2022-09-14T12:21:50.899Z,6.70
2022-09-14T12:26:04.610Z,6.70
2022-09-14T12:30:58.981Z,6.50
2022-09-14T12:35:51.082Z,6.70
2022-09-14T12:40:36.535Z,6.50
2022-09-14T12:44:44.780Z,6.00
2022-09-14T12:48:59.572Z,6.30
2022-09-14T12:53:15.663Z,6.40
2022-09-14T12:57:36.701Z,6.30
2022-09-14T13:01:53.711Z,6.10
2022-09-14T13:06:04.413Z,6.00
2022-09-14T13:10:22.384Z,6.40
2022-09-14T13:14:39.259Z,6.30
2022-09-14T13:18:49.668Z,6.50
2022-09-14T13:23:01.993Z,7.60
2022-09-14T13:27:20.764Z,6.50
2022-09-14T13:31:38.098Z,7.40
2022-09-14T13:35:57.684Z,6.50
2022-09-14T13:40:10.740Z,7.00
2022-09-14T13:44:18.429Z,7.60
2022-09-14T13:48:29.002Z,7.90
2022-09-14T13:53:01.249Z,8.50
2022-09-14T13:57:21.870Z,8.60
2022-09-14T14:01:30.806Z,8.20
2022-09-14T14:05:51.166Z,9.10
2022-09-14T14:10:04.267Z,8.50
2022-09-14T14:14:28.815Z,8.00
2022-09-14T14:18:53.797Z,6.90
2022-09-14T14:23:03.270Z,7.10
2022-09-14T14:27:28.778Z,6.50
2022-09-14T14:31:41.199Z,6.60
2022-09-14T14:36:05.175Z,7.10
2022-09-14T14:40:21.734Z,7.20
2022-09-14T14:44:37.148Z,7.00
2022-09-14T14:48:47.687Z,6.70
2022-09-14T14:53:04.068Z,6.20
2022-09-14T14:57:14.421Z,6.60
2022-09-14T15:01:22.162Z,6.40
2022-09-14T15:05:31.242Z,6.10
2022-09-14T15:09:46.411Z,5.60
2022-09-14T15:13:56.366Z,4.60
2022-09-14T15:18:11.275Z,4.40
2022-09-14T15:22:21.712Z,4.20
2022-09-14T15:26:35.980Z,3.80
2022-09-14T15:30:52.269Z,3.70
2022-09-14T15:35:02.935Z,3.30
2022-09-14T15:39:16.232Z,3.30
2022-09-14T15:43:29.586Z,3.50
2022-09-14T15:47:42.367Z,3.60
2022-09-14T15:51:56.030Z,4.40
2022-09-14T15:56:06.331Z,5.60
2022-09-14T16:00:18.009Z,4.90
2022-09-14T16:04:25.866Z,4.50
2022-09-14T16:08:33.719Z,10.20
2022-09-14T16:12:41.357Z,11.10
2022-09-14T16:16:49.987Z,15.00
2022-09-14T16:20:57.540Z,12.20
2022-09-14T16:25:05.400Z,6.70
2022-09-14T16:29:15.202Z,5.40
2022-09-14T16:33:23.013Z,4.50
2022-09-14T16:37:31.426Z,4.50
2022-09-14T16:41:42.523Z,5.10
2022-09-14T16:45:49.923Z,5.30
2022-09-14T16:49:57.583Z,4.70
2022-09-14T16:54:08.301Z,5.10
2022-09-14T16:58:19.280Z,4.90
2022-09-14T17:02:27.126Z,4.90
2022-09-14T17:06:36.319Z,5.50
2022-09-14T17:10:43.841Z,5.40
2022-09-14T17:14:51.461Z,5.60
2022-09-14T17:19:01.499Z,5.20
2022-09-14T17:23:09.149Z,6.20
2022-09-14T17:27:19.013Z,6.10
2022-09-14T17:31:28.471Z,7.40
2022-09-14T17:35:36.061Z,8.40
2022-09-14T17:39:43.940Z,7.20
2022-09-14T17:43:57.115Z,6.40
2022-09-14T17:48:05.265Z,6.30
2022-09-14T17:52:13.063Z,7.80
2022-09-14T17:56:22.574Z,5.50
2022-09-14T18:00:30.398Z,5.60
2022-09-14T18:04:38.194Z,5.70
2022-09-14T18:08:46.014Z,6.40
2022-09-14T18:12:54.068Z,23.40
2022-09-14T18:17:01.807Z,38.70
2022-09-14T18:21:10.407Z,29.00
2022-09-14T18:25:18.257Z,8.50
2022-09-14T18:29:27.106Z,6.70
2022-09-14T18:33:35.636Z,6.20
2022-09-14T18:37:43.533Z,6.00
2022-09-14T18:41:54.312Z,5.90
2022-09-14T18:46:03.936Z,6.30
2022-09-14T18:50:13.018Z,6.30
2022-09-14T18:54:27.313Z,6.10
2022-09-14T18:58:37.984Z,6.30
2022-09-14T19:02:46.176Z,6.80
2022-09-14T19:06:54.261Z,6.10
2022-09-14T19:11:07.945Z,6.50
2022-09-14T19:15:15.643Z,5.80
2022-09-14T19:19:23.716Z,5.90
2022-09-14T19:23:31.234Z,6.00
2022-09-14T19:27:39.181Z,6.20
2022-09-14T19:31:51.120Z,6.20
2022-09-14T19:35:58.699Z,5.50
2022-09-14T19:40:21.455Z,5.90
2022-09-14T19:44:33.094Z,5.70
2022-09-14T19:48:40.831Z,5.40
2022-09-14T19:52:49.327Z,6.00
2022-09-14T19:56:57.380Z,5.70
2022-09-14T20:01:04.688Z,6.10
2022-09-14T20:05:13.008Z,6.10
2022-09-14T20:09:22.552Z,5.60
2022-09-14T20:13:31.133Z,6.20
2022-09-14T20:17:38.702Z,6.60
2022-09-14T20:21:47.022Z,5.90
2022-09-14T20:25:54.515Z,5.70
2022-09-14T20:30:02.259Z,5.60
2022-09-14T20:34:09.720Z,5.10
2022-09-14T20:38:17.042Z,5.30
2022-09-14T20:42:24.524Z,5.40
2022-09-14T20:46:35.278Z,5.70
2022-09-14T20:50:46.418Z,5.90
2022-09-14T20:54:54.074Z,6.00
2022-09-14T20:59:04.751Z,5.70
2022-09-14T21:03:13.882Z,6.20
2022-09-14T21:07:22.409Z,5.70
2022-09-14T21:11:31.332Z,5.70
2022-09-14T21:15:39.214Z,6.40
2022-09-14T21:19:46.243Z,6.00
2022-09-14T21:23:54.130Z,6.00
2022-09-14T21:28:02.689Z,5.40
2022-09-14T21:32:10.289Z,6.10
2022-09-14T21:36:20.113Z,6.00
2022-09-14T21:40:28.150Z,5.90
2022-09-14T21:44:37.756Z,5.80
2022-09-14T21:48:45.855Z,6.10
2022-09-14T21:52:53.170Z,6.10
2022-09-14T21:57:01.817Z,6.40
2022-09-14T22:01:09.649Z,5.90
2022-09-14T22:05:17.563Z,5.90
2022-09-14T22:09:27.291Z,6.70
2022-09-14T22:13:35.132Z,6.60
2022-09-14T22:17:42.455Z,6.30
2022-09-14T22:21:50.103Z,6.60
2022-09-14T22:25:58.920Z,6.70
2022-09-14T22:30:07.313Z,7.10
2022-09-14T22:34:15.612Z,7.20
2022-09-14T22:38:23.673Z,7.00
2022-09-14T22:42:32.878Z,6.90
2022-09-14T22:46:40.789Z,7.10
2022-09-14T22:50:50.072Z,7.70
2022-09-14T22:54:57.771Z,6.90
2022-09-14T22:59:07.821Z,7.40
2022-09-14T23:03:16.429Z,7.50
2022-09-14T23:07:24.479Z,7.60
2022-09-14T23:11:32.600Z,7.20
2022-09-14T23:15:41.786Z,7.80
2022-09-14T23:19:49.384Z,6.40
2022-09-14T23:23:58.570Z,6.70
2022-09-14T23:28:06.868Z,6.50
2022-09-14T23:32:14.462Z,7.70
2022-09-14T23:36:23.255Z,8.10
2022-09-14T23:40:31.922Z,8.40
2022-09-14T23:44:40.287Z,9.20
2022-09-14T23:48:48.434Z,8.80
2022-09-14T23:52:57.867Z,7.80
2022-09-14T23:57:06.957Z,6.20
